createdAt,value
2022-07-25T00:00:03.529Z,22.5
2022-07-25T00:01:05.399Z,22.5
2022-07-25T00:02:07.593Z,22.5
2022-07-25T00:03:09.450Z,22.5
2022-07-25T00:04:12.110Z,22.5
2022-07-25T00:05:13.468Z,22.5
2022-07-25T00:06:17.923Z,22.5
2022-07-25T00:07:17.397Z,22.5
2022-07-25T00:08:19.392Z,22.5
2022-07-25T00:09:21.407Z,22.5
2022-07-25T00:10:23.431Z,22.5
2022-07-25T00:11:25.416Z,22.4
2022-07-25T00:12:27.448Z,22.4
2022-07-25T00:13:29.422Z,22.4
2022-07-25T00:14:31.412Z,22.4
2022-07-25T00:15:33.435Z,22.4
2022-07-25T00:16:35.506Z,22.3
2022-07-25T00:17:37.419Z,22.3
2022-07-25T00:18:39.434Z,22.3
2022-07-25T00:19:41.416Z,22.3
2022-07-25T00:20:43.424Z,22.3
2022-07-25T00:21:45.515Z,22.3
2022-07-25T00:22:47.423Z,22.3
2022-07-25T00:23:49.419Z,22.3
2022-07-25T00:24:51.423Z,22.3
2022-07-25T00:25:53.420Z,22.2
2022-07-25T00:26:55.467Z,22.1
2022-07-25T00:27:57.424Z,22
2022-07-25T00:28:59.447Z,21.8
2022-07-25T00:30:01.506Z,21.8
2022-07-25T00:31:03.610Z,21.7
2022-07-25T00:32:05.461Z,21.7
2022-07-25T00:33:07.465Z,21.7
2022-07-25T00:34:09.893Z,21.7
2022-07-25T00:35:11.446Z,21.7
2022-07-25T00:36:13.490Z,21.7
2022-07-25T00:37:15.482Z,21.7
2022-07-25T00:38:17.455Z,21.7
2022-07-25T00:39:19.462Z,21.7
2022-07-25T00:40:21.467Z,21.7
2022-07-25T00:41:23.476Z,21.7
2022-07-25T00:42:25.468Z,21.7
2022-07-25T00:43:27.453Z,21.8
2022-07-25T00:44:29.454Z,21.8
2022-07-25T00:45:31.484Z,21.8
2022-07-25T00:46:33.525Z,21.8
2022-07-25T00:47:35.458Z,21.8
2022-07-25T00:48:37.546Z,21.8
2022-07-25T00:49:39.457Z,21.7
2022-07-25T00:50:41.504Z,21.7
2022-07-25T00:51:43.530Z,21.7
2022-07-25T00:52:45.508Z,21.7
2022-07-25T00:53:47.467Z,21.7
2022-07-25T00:54:49.502Z,21.7
2022-07-25T00:55:51.471Z,21.7
2022-07-25T00:56:53.510Z,21.7
2022-07-25T00:57:55.505Z,21.7
2022-07-25T00:58:57.508Z,21.7
2022-07-25T00:59:59.486Z,21.7
2022-07-25T01:01:01.578Z,21.7
2022-07-25T01:02:03.763Z,21.7
2022-07-25T01:03:05.669Z,21.7
2022-07-25T01:04:07.924Z,21.6
2022-07-25T01:05:10.225Z,21.6
2022-07-25T01:06:11.518Z,21.6
2022-07-25T01:07:13.564Z,21.5
2022-07-25T01:08:15.489Z,21.5
2022-07-25T01:09:17.496Z,21.4
2022-07-25T01:10:19.496Z,21.4
2022-07-25T01:11:21.505Z,21.5
2022-07-25T01:12:23.532Z,21.5
2022-07-25T01:13:25.500Z,21.5
2022-07-25T01:14:27.503Z,21.5
2022-07-25T01:15:29.553Z,21.5
2022-07-25T01:16:31.506Z,21.5
2022-07-25T01:17:33.538Z,21.5
2022-07-25T01:18:35.512Z,21.5
2022-07-25T01:19:37.538Z,21.4
2022-07-25T01:20:39.505Z,21.4
2022-07-25T01:21:41.511Z,21.3
2022-07-25T01:22:43.512Z,21.2
2022-07-25T01:23:45.513Z,21.3
2022-07-25T01:24:47.514Z,21.3
2022-07-25T01:25:49.520Z,21.3
2022-07-25T01:26:51.559Z,21.3
2022-07-25T01:27:55.662Z,21.3
2022-07-25T01:28:55.532Z,21.2
2022-07-25T01:29:57.523Z,21.2
2022-07-25T01:30:59.550Z,21.2
2022-07-25T01:32:01.621Z,21.2
2022-07-25T01:33:06.613Z,21.2
2022-07-25T01:34:05.807Z,21.2
2022-07-25T01:35:07.530Z,21.1
2022-07-25T01:36:09.546Z,21.2
2022-07-25T01:37:11.612Z,21.2
2022-07-25T01:38:13.540Z,21.2
2022-07-25T01:39:15.547Z,21.2
2022-07-25T01:40:17.537Z,21.2
2022-07-25T01:41:22.551Z,21.3
2022-07-25T01:42:21.570Z,21.2
2022-07-25T01:43:23.556Z,21.2
2022-07-25T01:44:25.570Z,21.1
2022-07-25T01:45:27.544Z,21.1
2022-07-25T01:46:29.621Z,21.2
2022-07-25T01:47:31.731Z,21.2
2022-07-25T01:48:33.605Z,21.2
2022-07-25T01:49:35.572Z,21.2
2022-07-25T01:50:37.576Z,21.2
2022-07-25T01:51:39.569Z,21.1
2022-07-25T01:52:41.634Z,21.1
2022-07-25T01:53:43.579Z,21.1
2022-07-25T01:54:45.570Z,21.2
2022-07-25T01:55:47.609Z,21.2
2022-07-25T01:56:49.589Z,21.2
2022-07-25T01:57:52.038Z,21.2
2022-07-25T01:58:53.595Z,21.2
2022-07-25T01:59:55.578Z,21.2
2022-07-25T02:00:57.640Z,21.2
2022-07-25T02:01:59.651Z,21.2
2022-07-25T02:03:01.612Z,21.2
2022-07-25T02:04:03.818Z,21.2
2022-07-25T02:05:05.654Z,21.1
2022-07-25T02:06:07.584Z,21.1
2022-07-25T02:07:09.582Z,21.1
2022-07-25T02:08:11.630Z,21.1
2022-07-25T02:09:13.590Z,21.1
2022-07-25T02:10:15.597Z,21.1
2022-07-25T02:11:17.607Z,21
2022-07-25T02:12:19.651Z,21
2022-07-25T02:13:21.595Z,21
2022-07-25T02:14:23.613Z,20.9
2022-07-25T02:15:25.599Z,20.9
2022-07-25T02:16:28.718Z,20.9
2022-07-25T02:17:29.711Z,20.9
2022-07-25T02:18:31.603Z,20.9
2022-07-25T02:19:33.609Z,20.9
2022-07-25T02:20:35.620Z,20.9
2022-07-25T02:21:37.754Z,20.9
2022-07-25T02:22:39.649Z,20.8
2022-07-25T02:23:41.608Z,20.8
2022-07-25T02:24:43.622Z,20.8
2022-07-25T02:25:45.634Z,20.7
2022-07-25T02:26:47.725Z,20.7
2022-07-25T02:27:49.622Z,20.7
2022-07-25T02:28:51.621Z,20.7
2022-07-25T02:29:53.629Z,20.7
2022-07-25T02:30:55.673Z,20.7
2022-07-25T02:31:57.663Z,20.8
2022-07-25T02:32:59.657Z,20.8
2022-07-25T02:34:01.941Z,20.8
2022-07-25T02:35:03.779Z,20.8
2022-07-25T02:36:05.665Z,20.8
2022-07-25T02:37:07.647Z,20.8
2022-07-25T02:38:09.743Z,20.8
2022-07-25T02:39:11.641Z,20.8
2022-07-25T02:40:13.660Z,20.8
2022-07-25T02:41:15.673Z,20.8
2022-07-25T02:42:17.661Z,20.8
2022-07-25T02:43:19.712Z,20.8
2022-07-25T02:44:23.890Z,20.8
2022-07-25T02:45:25.653Z,20.8
2022-07-25T02:46:28.227Z,20.8
2022-07-25T02:47:29.656Z,20.8
2022-07-25T02:48:34.142Z,20.8
2022-07-25T02:49:35.688Z,20.8
2022-07-25T02:50:37.659Z,20.8
2022-07-25T02:51:39.661Z,20.7
2022-07-25T02:52:49.449Z,20.8
2022-07-25T02:53:58.966Z,20.7
2022-07-25T02:54:52.663Z,20.7
2022-07-25T02:55:54.657Z,20.7
2022-07-25T02:56:56.659Z,20.8
2022-07-25T02:57:58.673Z,20.7
2022-07-25T02:59:00.720Z,20.7
2022-07-25T03:00:02.813Z,20.7
2022-07-25T03:01:04.836Z,20.7
2022-07-25T03:02:06.669Z,20.7
2022-07-25T03:03:08.733Z,20.8
2022-07-25T03:04:11.115Z,20.8
2022-07-25T03:05:12.690Z,20.8
2022-07-25T03:06:14.678Z,20.8
2022-07-25T03:07:16.681Z,20.8
2022-07-25T03:08:18.717Z,20.8
2022-07-25T03:09:20.693Z,20.8
2022-07-25T03:10:22.685Z,20.8
2022-07-25T03:11:24.696Z,20.7
2022-07-25T03:12:26.734Z,20.8
2022-07-25T03:13:28.715Z,20.7
2022-07-25T03:14:30.690Z,20.8
2022-07-25T03:15:32.684Z,20.8
2022-07-25T03:16:34.724Z,20.8
2022-07-25T03:17:36.708Z,20.8
2022-07-25T03:18:38.750Z,20.8
2022-07-25T03:19:40.697Z,20.8
2022-07-25T03:20:42.697Z,20.8
2022-07-25T03:21:44.699Z,20.7
2022-07-25T03:22:46.709Z,20.7
2022-07-25T03:23:52.351Z,20.7
2022-07-25T03:24:50.714Z,20.6
2022-07-25T03:25:52.729Z,20.6
2022-07-25T03:26:54.717Z,20.5
2022-07-25T03:27:56.745Z,20.5
2022-07-25T03:28:58.714Z,20.5
2022-07-25T03:30:00.707Z,20.5
2022-07-25T03:31:02.803Z,20.5
2022-07-25T03:32:04.827Z,20.4
2022-07-25T03:33:06.720Z,20.3
2022-07-25T03:34:09.006Z,20.3
2022-07-25T03:35:10.728Z,20.2
2022-07-25T03:36:12.767Z,20.1
2022-07-25T03:37:14.755Z,20.1
2022-07-25T03:38:16.755Z,20.1
2022-07-25T03:39:18.790Z,20.2
2022-07-25T03:40:20.744Z,20.3
2022-07-25T03:41:22.725Z,20.5
2022-07-25T03:42:26.694Z,20.5
2022-07-25T03:43:26.738Z,20.6
2022-07-25T03:44:28.787Z,20.6
2022-07-25T03:45:30.817Z,20.7
2022-07-25T03:46:32.747Z,20.7
2022-07-25T03:47:34.744Z,20.8
2022-07-25T03:48:39.359Z,20.9
2022-07-25T03:49:40.799Z,20.9
2022-07-25T03:50:42.759Z,21
2022-07-25T03:51:44.756Z,21
2022-07-25T03:52:46.760Z,21
2022-07-25T03:53:48.764Z,21
2022-07-25T03:54:50.808Z,21.1
2022-07-25T03:55:52.761Z,21.1
2022-07-25T03:56:54.754Z,21.2
2022-07-25T03:57:56.777Z,21.3
2022-07-25T03:58:58.765Z,21.3
2022-07-25T04:00:00.794Z,21.4
2022-07-25T04:01:02.828Z,21.5
2022-07-25T04:02:04.825Z,21.5
2022-07-25T04:03:06.779Z,21.5
2022-07-25T04:04:09.103Z,21.5
2022-07-25T04:05:10.777Z,21.5
2022-07-25T04:06:12.773Z,21.6
2022-07-25T04:07:14.827Z,21.6
2022-07-25T04:08:16.799Z,21.6
2022-07-25T04:09:18.809Z,21.6
2022-07-25T04:10:21.000Z,21.6
2022-07-25T04:11:22.782Z,21.5
2022-07-25T04:12:24.838Z,21.6
2022-07-25T04:13:26.776Z,21.6
2022-07-25T04:14:28.779Z,21.7
2022-07-25T04:15:30.812Z,21.8
2022-07-25T04:16:32.815Z,21.8
2022-07-25T04:17:34.818Z,21.8
2022-07-25T04:18:36.812Z,21.8
2022-07-25T04:19:38.822Z,21.8
2022-07-25T04:20:40.806Z,21.8
2022-07-25T04:21:42.794Z,21.8
2022-07-25T04:22:46.861Z,21.8
2022-07-25T04:23:46.790Z,21.8
2022-07-25T04:24:48.874Z,21.8
2022-07-25T04:25:50.804Z,21.8
2022-07-25T04:26:52.806Z,21.9
2022-07-25T04:27:54.801Z,22
2022-07-25T04:28:56.816Z,22.1
2022-07-25T04:29:58.878Z,22.1
2022-07-25T04:31:00.802Z,22.1
2022-07-25T04:32:02.884Z,22.2
2022-07-25T04:33:07.948Z,22.2
2022-07-25T04:34:10.099Z,22.3
2022-07-25T04:35:11.855Z,22.3
2022-07-25T04:36:13.828Z,22.3
2022-07-25T04:37:15.830Z,22.4
2022-07-25T04:38:17.844Z,22.5
2022-07-25T04:39:19.916Z,22.6
2022-07-25T04:40:21.824Z,22.7
2022-07-25T04:41:23.820Z,22.7
2022-07-25T04:42:25.844Z,22.8
2022-07-25T04:43:27.840Z,22.9
2022-07-25T04:44:29.898Z,23
2022-07-25T04:45:31.846Z,23
2022-07-25T04:46:33.837Z,23
2022-07-25T04:47:35.828Z,23
2022-07-25T04:48:37.879Z,22.9
2022-07-25T04:49:39.872Z,22.9
2022-07-25T04:50:41.855Z,22.9
2022-07-25T04:51:43.839Z,22.9
2022-07-25T04:52:45.851Z,22.8
2022-07-25T04:53:47.859Z,22.9
2022-07-25T04:54:49.907Z,23
2022-07-25T04:55:51.854Z,23
2022-07-25T04:56:53.865Z,23.1
2022-07-25T04:57:55.868Z,23.1
2022-07-25T04:59:00.666Z,23.2
2022-07-25T04:59:59.927Z,23.2
2022-07-25T05:01:02.007Z,23.2
2022-07-25T05:02:03.939Z,23.3
2022-07-25T05:03:05.912Z,23.3
2022-07-25T05:04:08.133Z,23.4
2022-07-25T05:05:18.442Z,23.3
2022-07-25T05:06:11.873Z,23.4
2022-07-25T05:07:13.879Z,23.4
2022-07-25T05:08:15.874Z,23.5
2022-07-25T05:09:17.880Z,23.5
2022-07-25T05:10:19.983Z,23.6
2022-07-25T05:11:21.924Z,23.6
2022-07-25T05:12:23.937Z,23.7
2022-07-25T05:13:25.940Z,23.8
2022-07-25T05:14:28.119Z,23.8
2022-07-25T05:15:29.932Z,23.7
2022-07-25T05:16:31.987Z,23.8
2022-07-25T05:17:33.934Z,23.9
2022-07-25T05:18:35.888Z,24
2022-07-25T05:19:37.886Z,24.1
2022-07-25T05:20:39.947Z,24.2
2022-07-25T05:21:41.896Z,24.2
2022-07-25T05:22:43.899Z,24.3
2022-07-25T05:23:45.927Z,24.3
2022-07-25T05:24:47.894Z,24.3
2022-07-25T05:25:49.933Z,24.2
2022-07-25T05:26:52.002Z,24.1
2022-07-25T05:27:53.905Z,24
2022-07-25T05:28:55.907Z,24
2022-07-25T05:29:58.060Z,24
2022-07-25T05:30:59.902Z,24.1
2022-07-25T05:32:02.981Z,24.3
2022-07-25T05:33:04.911Z,24.4
2022-07-25T05:34:07.279Z,24.5
2022-07-25T05:35:08.954Z,24.6
2022-07-25T05:36:10.958Z,24.6
2022-07-25T05:37:12.945Z,24.4
2022-07-25T05:38:14.931Z,24.4
2022-07-25T05:39:16.982Z,24.4
2022-07-25T05:40:18.948Z,24.5
2022-07-25T05:41:21.004Z,24.5
2022-07-25T05:42:22.952Z,24.4
2022-07-25T05:43:24.926Z,24.3
2022-07-25T05:44:26.945Z,24.2
2022-07-25T05:45:28.935Z,24.2
2022-07-25T05:46:31.160Z,24.3
2022-07-25T05:47:32.952Z,24.4
2022-07-25T05:48:35.051Z,24.4
2022-07-25T05:49:36.995Z,24.5
2022-07-25T05:50:38.967Z,24.6
2022-07-25T05:51:40.942Z,24.7
2022-07-25T05:52:42.947Z,24.8
2022-07-25T05:53:45.004Z,24.8
2022-07-25T05:54:46.985Z,24.8
2022-07-25T05:55:49.597Z,24.8
2022-07-25T05:56:50.969Z,24.8
2022-07-25T05:57:52.954Z,24.9
2022-07-25T05:58:55.015Z,25
2022-07-25T05:59:58.081Z,25.1
2022-07-25T06:00:59.962Z,25.2
2022-07-25T06:02:02.160Z,25.4
2022-07-25T06:03:04.204Z,25.6
2022-07-25T06:04:06.276Z,25.8
2022-07-25T06:05:08.017Z,25.9
2022-07-25T06:06:09.963Z,25.9
2022-07-25T06:07:11.968Z,26
2022-07-25T06:08:13.977Z,26.2
2022-07-25T06:09:15.988Z,26.3
2022-07-25T06:10:18.026Z,26.1
2022-07-25T06:11:19.972Z,26.1
2022-07-25T06:12:21.983Z,26.1
2022-07-25T06:13:23.979Z,26.1
2022-07-25T06:14:25.968Z,26.2
2022-07-25T06:15:28.031Z,26.4
2022-07-25T06:16:30.064Z,26.6
2022-07-25T06:17:32.582Z,26.6
2022-07-25T06:18:34.015Z,26.5
2022-07-25T06:19:35.998Z,26.4
2022-07-25T06:20:38.041Z,26.2
2022-07-25T06:21:39.988Z,26
2022-07-25T06:22:42.133Z,25.9
2022-07-25T06:23:43.994Z,25.9
2022-07-25T06:24:46.042Z,26
2022-07-25T06:25:50.053Z,26
2022-07-25T06:26:50.089Z,26
2022-07-25T06:27:52.050Z,26
2022-07-25T06:28:54.002Z,26
2022-07-25T06:29:56.022Z,26
2022-07-25T06:30:58.151Z,26.1
2022-07-25T06:32:00.151Z,26.1
2022-07-25T06:33:02.071Z,26.1
2022-07-25T06:34:04.429Z,26.2
2022-07-25T06:35:06.054Z,26.2
2022-07-25T06:36:08.016Z,26.3
2022-07-25T06:37:10.075Z,26.3
2022-07-25T06:38:12.135Z,26.5
2022-07-25T06:39:14.024Z,26.8
2022-07-25T06:40:16.028Z,26.9
2022-07-25T06:41:18.026Z,27.1
2022-07-25T06:42:20.088Z,27.4
2022-07-25T06:43:22.053Z,27.5
2022-07-25T06:44:24.135Z,27.5
2022-07-25T06:45:26.048Z,27.5
2022-07-25T06:46:28.187Z,27.4
2022-07-25T06:47:34.162Z,27.5
2022-07-25T06:48:33.011Z,27.7
2022-07-25T06:49:35.079Z,27.8
2022-07-25T06:50:37.041Z,27.9
2022-07-25T06:51:39.088Z,27.9
2022-07-25T06:52:41.121Z,28
2022-07-25T06:53:43.039Z,28.2
2022-07-25T06:54:45.051Z,28.5
2022-07-25T06:55:47.056Z,28.9
2022-07-25T06:56:49.115Z,29.5
2022-07-25T06:57:51.064Z,30
2022-07-25T06:58:53.056Z,30.4
2022-07-25T06:59:55.053Z,30.5
2022-07-25T07:00:57.164Z,30.6
2022-07-25T07:01:59.193Z,30.7
2022-07-25T07:03:01.119Z,30.7
2022-07-25T07:04:03.329Z,30.7
2022-07-25T07:05:05.144Z,30.8
2022-07-25T07:06:07.068Z,30.9
2022-07-25T07:07:09.944Z,30.8
2022-07-25T07:08:11.132Z,30.9
2022-07-25T07:09:13.070Z,31
2022-07-25T07:10:15.081Z,31.4
2022-07-25T07:11:17.137Z,31.8
2022-07-25T07:12:19.126Z,32.3
2022-07-25T07:13:24.225Z,32.7
2022-07-25T07:14:23.147Z,33.2
2022-07-25T07:15:25.131Z,33.6
2022-07-25T07:16:27.152Z,34
2022-07-25T07:17:29.086Z,34.3
2022-07-25T07:18:31.117Z,34.2
2022-07-25T07:19:33.111Z,33.8
2022-07-25T07:20:35.128Z,33.2
2022-07-25T07:21:37.086Z,32.8
2022-07-25T07:22:39.131Z,32.7
2022-07-25T07:23:41.108Z,32.5
2022-07-25T07:24:44.015Z,32.6
2022-07-25T07:25:45.147Z,32.9
2022-07-25T07:26:48.170Z,32.9
2022-07-25T07:27:50.138Z,32.9
2022-07-25T07:28:52.220Z,32.7
2022-07-25T07:29:54.132Z,32.5
2022-07-25T07:31:15.546Z,32.2
2022-07-25T07:31:58.174Z,32.1
2022-07-25T07:33:00.139Z,32.2
2022-07-25T07:34:02.198Z,32.4
2022-07-25T07:35:04.184Z,32.3
2022-07-25T07:36:06.125Z,32.1
2022-07-25T07:37:08.114Z,32.1
2022-07-25T07:38:10.390Z,32.1
2022-07-25T07:39:12.197Z,32.1
2022-07-25T07:40:16.880Z,32.4
2022-07-25T07:41:16.141Z,32.6
2022-07-25T07:42:18.143Z,32.6
2022-07-25T07:43:20.228Z,32.8
2022-07-25T07:44:22.183Z,33.2
2022-07-25T07:45:24.154Z,33.5
2022-07-25T07:46:26.328Z,33.6
2022-07-25T07:47:28.434Z,33.8
2022-07-25T07:48:30.270Z,33.8
2022-07-25T07:49:32.160Z,33.8
2022-07-25T07:50:34.180Z,34
2022-07-25T07:51:36.138Z,34
2022-07-25T07:52:37.526Z,34.2
2022-07-25T07:53:39.275Z,34.3
2022-07-25T07:54:41.189Z,34.3
2022-07-25T07:55:43.151Z,34.2
2022-07-25T07:56:45.159Z,33.8
2022-07-25T07:57:47.240Z,33.7
2022-07-25T07:58:49.547Z,33.4
2022-07-25T07:59:51.163Z,33.3
2022-07-25T08:00:53.169Z,33.4
2022-07-25T08:01:56.139Z,33.5
2022-07-25T08:02:57.287Z,33.4
2022-07-25T08:03:59.201Z,33.3
2022-07-25T08:05:01.166Z,33.3
2022-07-25T08:06:03.206Z,33.3
2022-07-25T08:07:05.209Z,33.2
2022-07-25T08:08:07.264Z,33.2
2022-07-25T08:09:09.459Z,33.4
2022-07-25T08:10:11.256Z,33.3
2022-07-25T08:11:13.198Z,33.4
2022-07-25T08:12:15.193Z,33.4
2022-07-25T08:13:17.204Z,33.5
2022-07-25T08:14:19.349Z,33.7
2022-07-25T08:15:21.226Z,33.9
2022-07-25T08:16:22.760Z,33.7
2022-07-25T08:17:28.171Z,33.9
2022-07-25T08:18:25.241Z,34.4
2022-07-25T08:19:27.212Z,34.7
2022-07-25T08:20:37.738Z,34.7
2022-07-25T08:21:31.262Z,34.4
2022-07-25T08:22:33.229Z,34.2
2022-07-25T08:23:34.648Z,34.2
2022-07-25T08:24:35.598Z,34.4
2022-07-25T08:25:36.617Z,34.9
2022-07-25T08:26:37.607Z,35.3
2022-07-25T08:27:39.245Z,35.4
2022-07-25T08:28:40.607Z,35.5
2022-07-25T08:29:41.626Z,35.6
2022-07-25T08:30:43.319Z,35.7
2022-07-25T08:31:45.278Z,35.5
2022-07-25T08:32:46.621Z,35.2
2022-07-25T08:33:48.369Z,34.9
2022-07-25T08:34:50.330Z,34.6
2022-07-25T08:35:52.415Z,34.2
2022-07-25T08:36:54.315Z,34
2022-07-25T08:37:55.629Z,33.9
2022-07-25T08:38:57.239Z,33.9
2022-07-25T08:39:59.297Z,34
2022-07-25T08:41:01.297Z,34
2022-07-25T08:42:06.521Z,34
2022-07-25T08:43:08.215Z,33.9
2022-07-25T08:44:10.247Z,33.8
2022-07-25T08:45:11.709Z,33.7
2022-07-25T08:46:12.647Z,33.7
2022-07-25T08:47:14.336Z,33.9
2022-07-25T08:48:15.647Z,34
2022-07-25T08:49:16.674Z,34.2
2022-07-25T08:50:18.386Z,34.3
2022-07-25T08:51:20.329Z,34.4
2022-07-25T08:52:22.267Z,34.3
2022-07-25T08:53:33.427Z,34.1
2022-07-25T08:54:25.644Z,33.9
2022-07-25T08:55:26.688Z,33.9
2022-07-25T08:56:27.642Z,34.2
2022-07-25T08:57:28.658Z,34.6
2022-07-25T08:58:30.274Z,35
2022-07-25T08:59:32.287Z,35.3
2022-07-25T09:00:33.695Z,35.2
2022-07-25T09:01:35.457Z,35.1
2022-07-25T09:02:36.682Z,35
2022-07-25T09:03:37.670Z,35
2022-07-25T09:04:38.646Z,35
2022-07-25T09:05:40.331Z,35.2
2022-07-25T09:06:41.702Z,35.5
2022-07-25T09:07:42.671Z,35.5
2022-07-25T09:08:43.671Z,35.6
2022-07-25T09:09:44.695Z,35.5
2022-07-25T09:10:45.705Z,35.2
2022-07-25T09:11:46.705Z,35
2022-07-25T09:12:47.680Z,35
2022-07-25T09:13:49.424Z,35.1
2022-07-25T09:14:50.728Z,34.9
2022-07-25T09:15:51.770Z,34.6
2022-07-25T09:16:52.710Z,34.4
2022-07-25T09:17:53.707Z,34.4
2022-07-25T09:18:54.698Z,34.4
2022-07-25T09:19:55.690Z,34.5
2022-07-25T09:20:56.665Z,34.6
2022-07-25T09:21:57.739Z,34.6
2022-07-25T09:22:58.712Z,34.8
2022-07-25T09:23:59.782Z,35.1
2022-07-25T09:25:00.692Z,35.5
2022-07-25T09:26:01.768Z,35.6
2022-07-25T09:27:02.746Z,35.6
2022-07-25T09:28:03.681Z,35.7
2022-07-25T09:29:04.698Z,35.6
2022-07-25T09:30:05.803Z,35.5
2022-07-25T09:31:06.802Z,35.6
2022-07-25T09:32:07.747Z,35.9
2022-07-25T09:33:08.739Z,36.2
2022-07-25T09:34:10.109Z,36.3
2022-07-25T09:35:10.726Z,36.3
2022-07-25T09:36:11.727Z,36.3
2022-07-25T09:37:12.755Z,36
2022-07-25T09:38:13.735Z,35.8
2022-07-25T09:39:14.721Z,35.7
2022-07-25T09:40:15.792Z,35.5
2022-07-25T09:41:16.737Z,35.5
2022-07-25T09:42:17.739Z,35.6
2022-07-25T09:43:18.747Z,35.6
2022-07-25T09:44:19.740Z,35.7
2022-07-25T09:45:20.814Z,35.8
2022-07-25T09:46:21.854Z,36.1
2022-07-25T09:47:22.761Z,36.1
2022-07-25T09:48:23.781Z,35.9
2022-07-25T09:49:24.755Z,35.6
2022-07-25T09:50:25.818Z,35.5
2022-07-25T09:51:26.755Z,35.6
2022-07-25T09:52:27.765Z,35.6
2022-07-25T09:53:28.765Z,35.7
2022-07-25T09:54:29.803Z,35.7
2022-07-25T09:55:30.819Z,35.9
2022-07-25T09:56:31.760Z,35.8
2022-07-25T09:57:32.752Z,35.8
2022-07-25T09:58:33.766Z,35.9
2022-07-25T09:59:34.814Z,35.9
2022-07-25T10:00:35.817Z,35.9
2022-07-25T10:01:36.811Z,35.9
2022-07-25T10:02:37.815Z,36
2022-07-25T10:03:38.817Z,36.2
2022-07-25T10:04:39.768Z,36.3
2022-07-25T10:05:40.808Z,36.5
2022-07-25T10:06:41.784Z,36.6
2022-07-25T10:07:42.753Z,36.6
2022-07-25T10:08:43.808Z,36.5
2022-07-25T10:09:44.805Z,36.6
2022-07-25T10:10:45.815Z,36.6
2022-07-25T10:11:46.814Z,36.4
2022-07-25T10:12:47.789Z,36.2
2022-07-25T10:13:48.821Z,36
2022-07-25T10:14:49.774Z,36.1
2022-07-25T10:15:50.790Z,36.3
2022-07-25T10:16:51.890Z,36.2
2022-07-25T10:17:52.803Z,36.2
2022-07-25T10:18:53.845Z,36.1
2022-07-25T10:19:58.648Z,36.3
2022-07-25T10:20:55.806Z,36.5
2022-07-25T10:21:56.806Z,36.8
2022-07-25T10:22:58.410Z,37.2
2022-07-25T10:23:58.825Z,37.1
2022-07-25T10:24:59.823Z,36.8
2022-07-25T10:26:00.903Z,36.6
2022-07-25T10:27:01.985Z,36.5
2022-07-25T10:28:02.922Z,36.4
2022-07-25T10:29:03.833Z,36.3
2022-07-25T10:30:05.098Z,36.1
2022-07-25T10:31:05.882Z,36
2022-07-25T10:32:06.866Z,35.8
2022-07-25T10:33:07.861Z,35.7
2022-07-25T10:34:09.305Z,35.7
2022-07-25T10:35:09.857Z,35.9
2022-07-25T10:36:10.829Z,36.3
2022-07-25T10:37:12.148Z,36.8
2022-07-25T10:38:12.913Z,37.1
2022-07-25T10:39:13.852Z,37.4
2022-07-25T10:40:14.846Z,37.7
2022-07-25T10:41:15.853Z,37.6
2022-07-25T10:42:16.883Z,37.8
2022-07-25T10:43:17.856Z,38
2022-07-25T10:44:18.946Z,37.9
2022-07-25T10:45:19.882Z,37.7
2022-07-25T10:46:20.924Z,37.4
2022-07-25T10:47:21.843Z,37.4
2022-07-25T10:48:22.850Z,37.3
2022-07-25T10:49:31.613Z,37.3
2022-07-25T10:50:46.330Z,37.4
2022-07-25T10:51:25.869Z,37.4
2022-07-25T10:52:26.942Z,37.4
2022-07-25T10:53:27.870Z,37.4
2022-07-25T10:54:28.874Z,37.4
2022-07-25T10:55:29.896Z,37.3
2022-07-25T10:56:30.885Z,37.1
2022-07-25T10:57:32.365Z,37
2022-07-25T10:58:32.870Z,37.1
2022-07-25T10:59:33.877Z,37.4
2022-07-25T11:00:34.895Z,37.9
2022-07-25T11:01:36.018Z,38.5
2022-07-25T11:02:36.949Z,39.2
2022-07-25T11:03:37.899Z,39.8
2022-07-25T11:04:38.906Z,39.9
2022-07-25T11:05:39.910Z,39.5
2022-07-25T11:06:40.901Z,39.2
2022-07-25T11:07:44.242Z,39
2022-07-25T11:08:42.901Z,38.7
2022-07-25T11:09:43.902Z,38.2
2022-07-25T11:10:44.892Z,37.9
2022-07-25T11:11:45.899Z,37.9
2022-07-25T11:12:46.967Z,38.3
2022-07-25T11:13:47.914Z,38.6
2022-07-25T11:14:48.944Z,39
2022-07-25T11:15:49.919Z,39
2022-07-25T11:16:50.975Z,38.8
2022-07-25T11:17:51.986Z,38.7
2022-07-25T11:18:52.921Z,38.5
2022-07-25T11:19:53.893Z,38.3
2022-07-25T11:20:55.154Z,38.1
2022-07-25T11:21:55.938Z,38
2022-07-25T11:22:57.204Z,38.1
2022-07-25T11:23:57.915Z,38.2
2022-07-25T11:24:59.012Z,38.1
2022-07-25T11:25:59.941Z,38.1
2022-07-25T11:27:00.937Z,38.1
2022-07-25T11:28:01.960Z,38.2
2022-07-25T11:29:03.038Z,38.3
2022-07-25T11:30:04.247Z,38.4
2022-07-25T11:31:04.984Z,38.4
2022-07-25T11:32:06.009Z,38.4
2022-07-25T11:33:07.317Z,38.4
2022-07-25T11:34:07.923Z,38.3
2022-07-25T11:35:09.003Z,38
2022-07-25T11:36:09.971Z,37.8
2022-07-25T11:37:10.950Z,37.6
2022-07-25T11:38:11.996Z,37.3
2022-07-25T11:39:16.900Z,37
2022-07-25T11:40:14.037Z,36.9
2022-07-25T11:41:15.069Z,37.1
2022-07-25T11:42:15.979Z,37.3
2022-07-25T11:43:16.970Z,37.7
2022-07-25T11:44:17.955Z,38.1
2022-07-25T11:45:19.077Z,38.6
2022-07-25T11:46:20.053Z,38.9
2022-07-25T11:47:20.970Z,39
2022-07-25T11:48:22.017Z,39.1
2022-07-25T11:49:23.001Z,39
2022-07-25T11:50:23.982Z,38.8
2022-07-25T11:51:24.989Z,38.9
2022-07-25T11:52:26.001Z,39.2
2022-07-25T11:53:27.122Z,39.3
2022-07-25T11:54:28.447Z,38.9
2022-07-25T11:55:28.984Z,38.5
2022-07-25T11:56:42.247Z,38.4
2022-07-25T11:57:31.018Z,38.6
2022-07-25T11:58:32.073Z,38.7
2022-07-25T11:59:33.021Z,38.6
2022-07-25T12:00:33.995Z,38.2
2022-07-25T12:01:35.035Z,38
2022-07-25T12:02:36.142Z,38.2
2022-07-25T12:03:37.201Z,38.6
2022-07-25T12:04:38.026Z,39.2
2022-07-25T12:05:39.018Z,39.6
2022-07-25T12:06:40.018Z,39.9
2022-07-25T12:07:41.036Z,39.8
2022-07-25T12:08:42.112Z,39.7
2022-07-25T12:09:43.023Z,39.6
2022-07-25T12:10:44.023Z,39.7
2022-07-25T12:11:45.054Z,39.4
2022-07-25T12:12:46.018Z,39.1
2022-07-25T12:13:47.022Z,38.5
2022-07-25T12:14:48.024Z,38
2022-07-25T12:15:49.787Z,37.6
2022-07-25T12:16:51.092Z,37.4
2022-07-25T12:17:52.070Z,37.3
2022-07-25T12:18:53.040Z,37.4
2022-07-25T12:19:54.070Z,37.9
2022-07-25T12:20:56.226Z,38.3
2022-07-25T12:21:57.125Z,38.6
2022-07-25T12:22:58.044Z,38.6
2022-07-25T12:23:59.124Z,38.6
2022-07-25T12:25:00.043Z,38.5
2022-07-25T12:26:01.081Z,38.4
2022-07-25T12:27:02.071Z,38.2
2022-07-25T12:28:03.098Z,38.1
2022-07-25T12:29:04.518Z,37.9
2022-07-25T12:30:05.110Z,38
2022-07-25T12:31:06.076Z,38.2
2022-07-25T12:32:07.090Z,38.5
2022-07-25T12:33:08.063Z,38.9
2022-07-25T12:34:09.101Z,39.1
2022-07-25T12:35:10.084Z,39
2022-07-25T12:36:11.106Z,38.9
2022-07-25T12:37:12.135Z,38.7
2022-07-25T12:38:13.063Z,38.3
2022-07-25T12:39:14.110Z,38.2
2022-07-25T12:40:15.095Z,38.1
2022-07-25T12:41:18.051Z,38.1
2022-07-25T12:42:17.069Z,38.2
2022-07-25T12:43:18.183Z,38.1
2022-07-25T12:44:19.175Z,38.1
2022-07-25T12:45:20.151Z,38
2022-07-25T12:46:21.238Z,38.1
2022-07-25T12:47:23.300Z,38.5
2022-07-25T12:48:24.127Z,39
2022-07-25T12:49:25.129Z,39.6
2022-07-25T12:50:26.231Z,39.8
2022-07-25T12:51:27.479Z,39.6
2022-07-25T12:52:28.145Z,39.2
2022-07-25T12:53:29.129Z,38.9
2022-07-25T12:54:30.097Z,38.8
2022-07-25T12:55:31.161Z,38.7
2022-07-25T12:56:32.213Z,38.8
2022-07-25T12:57:33.116Z,38.9
2022-07-25T12:58:34.101Z,39.2
2022-07-25T12:59:35.109Z,39.6
2022-07-25T13:00:36.132Z,39.9
2022-07-25T13:01:37.203Z,39.7
2022-07-25T13:02:38.189Z,39.5
2022-07-25T13:03:39.110Z,39.3
2022-07-25T13:04:40.123Z,39.2
2022-07-25T13:05:41.135Z,39.5
2022-07-25T13:06:42.426Z,39.9
2022-07-25T13:07:43.120Z,40.4
2022-07-25T13:08:44.126Z,40.9
2022-07-25T13:09:45.171Z,40.7
2022-07-25T13:10:46.241Z,40.2
2022-07-25T13:11:47.255Z,39.8
2022-07-25T13:12:48.179Z,39.7
2022-07-25T13:13:49.144Z,39.6
2022-07-25T13:14:50.210Z,39.8
2022-07-25T13:15:51.143Z,39.8
2022-07-25T13:16:52.280Z,39.5
2022-07-25T13:17:53.151Z,39.3
2022-07-25T13:18:54.199Z,39.2
2022-07-25T13:19:55.146Z,38.9
2022-07-25T13:20:56.164Z,38.7
2022-07-25T13:21:57.338Z,38.8
2022-07-25T13:22:58.203Z,39
2022-07-25T13:23:59.156Z,39.2
2022-07-25T13:25:00.171Z,39.6
2022-07-25T13:26:01.218Z,39.9
2022-07-25T13:27:02.287Z,40
2022-07-25T13:28:03.192Z,40
2022-07-25T13:29:04.175Z,40
2022-07-25T13:30:05.201Z,40
2022-07-25T13:31:06.175Z,40
2022-07-25T13:32:07.469Z,39.9
2022-07-25T13:33:08.201Z,40.1
2022-07-25T13:34:09.221Z,40.3
2022-07-25T13:35:10.243Z,40.4
2022-07-25T13:36:11.181Z,40.5
2022-07-25T13:37:12.203Z,40.3
2022-07-25T13:38:13.181Z,40.1
2022-07-25T13:39:14.200Z,39.7
2022-07-25T13:40:15.277Z,39.5
2022-07-25T13:41:19.003Z,39.2
2022-07-25T13:42:20.377Z,38.9
2022-07-25T13:43:23.193Z,38.7
2022-07-25T13:44:24.207Z,38.8
2022-07-25T13:45:25.245Z,38.9